createdAt,value
2023-01-01T07:11:07.234Z,13.68
2023-01-01T07:13:34.101Z,13.73
2023-01-01T07:16:02.617Z,13.59
2023-01-01T07:18:32.672Z,13.63
2023-01-01T07:21:02.154Z,13.66
2023-01-01T07:23:31.375Z,13.63
2023-01-01T07:25:58.125Z,13.58
2023-01-01T07:28:25.794Z,13.59
2023-01-01T07:30:53.981Z,13.54
2023-01-01T07:33:23.641Z,13.59
2023-01-01T07:35:50.744Z,13.55
2023-01-01T07:38:17.568Z,13.54
2023-01-01T07:40:44.433Z,13.51
2023-01-01T07:43:12.717Z,13.53
2023-01-01T07:45:40.200Z,13.51
2023-01-01T07:48:09.560Z,13.52
2023-01-01T07:50:38.385Z,13.45
2023-01-01T07:53:05.311Z,13.40
2023-01-01T07:55:34.299Z,13.43
2023-01-01T07:58:01.369Z,13.42
2023-01-01T08:00:28.236Z,13.37
2023-01-01T08:02:55.311Z,13.42
2023-01-01T08:05:26.633Z,13.40
2023-01-01T08:07:53.824Z,13.40
2023-01-01T08:10:21.327Z,13.44
2023-01-01T08:12:48.049Z,13.39
2023-01-01T08:15:15.544Z,13.38
2023-01-01T08:17:46.447Z,13.40
2023-01-01T08:20:13.880Z,13.33
2023-01-01T08:22:40.760Z,13.39
2023-01-01T08:25:07.818Z,13.36
2023-01-01T08:27:34.524Z,13.31
2023-01-01T08:30:01.327Z,13.31
2023-01-01T08:32:28.105Z,13.37
2023-01-01T08:34:54.779Z,13.31
2023-01-01T10:19:52.815Z,13.03
2023-01-01T10:22:54.154Z,13.13
2023-01-01T10:25:34.387Z,13.10
2023-01-01T10:28:12.540Z,13.08
2023-01-01T10:30:41.901Z,13.11
2023-01-01T10:33:13.892Z,13.10
2023-01-01T10:35:44.567Z,13.14
2023-01-01T10:38:23.069Z,13.13
2023-01-01T10:40:56.404Z,13.18
2023-01-01T10:43:23.599Z,13.24
2023-01-01T10:45:56.031Z,13.21
2023-01-01T10:48:27.908Z,13.25
2023-01-01T10:59:38.650Z,13.26
2023-01-01T11:02:28.343Z,13.24
2023-01-01T11:05:21.518Z,13.22
2023-01-01T11:07:52.010Z,13.18
2023-01-01T11:10:21.609Z,13.15
2023-01-01T11:13:07.152Z,13.15
2023-01-01T11:15:40.257Z,13.15
2023-01-01T11:18:14.277Z,13.12
2023-01-01T11:20:42.268Z,13.13
2023-01-01T11:23:39.235Z,13.16
2023-01-01T11:26:17.731Z,13.19
2023-01-01T11:54:58.855Z,13.12
2023-01-01T12:46:40.881Z,13.24
2023-01-01T12:52:21.185Z,13.19
2023-01-01T12:55:21.908Z,13.15
2023-01-01T12:57:51.250Z,13.10
2023-01-01T13:00:21.083Z,13.15
2023-01-01T13:02:55.596Z,13.10
2023-01-01T13:05:45.678Z,13.07
2023-01-01T13:08:12.285Z,13.08
2023-01-01T13:10:42.760Z,13.05
2023-01-01T13:13:11.814Z,13.03
2023-01-01T13:15:38.243Z,12.99
2023-01-01T13:18:13.398Z,12.91
2023-01-01T13:20:46.624Z,12.80
2023-01-01T13:23:31.345Z,12.76
2023-01-01T13:26:23.000Z,12.69
2023-01-01T13:28:52.336Z,12.68
2023-01-01T13:31:19.068Z,12.68
2023-01-01T13:34:24.266Z,12.73
2023-01-01T13:36:50.729Z,12.70
2023-01-01T13:39:54.375Z,12.62
2023-01-01T13:42:39.479Z,12.50
2023-01-01T13:48:37.576Z,12.48
2023-01-01T13:52:03.086Z,12.47
2023-01-01T13:54:34.169Z,12.44
2023-01-01T13:57:00.594Z,12.37
2023-01-01T13:59:39.141Z,12.44
2023-01-01T14:02:14.694Z,12.41
2023-01-01T14:05:00.620Z,12.39
2023-01-01T14:07:55.432Z,12.37
2023-01-01T14:10:35.296Z,12.33
2023-01-01T14:13:08.506Z,12.33
2023-01-01T14:15:40.446Z,12.28
2023-01-01T14:18:13.043Z,12.28
2023-01-01T14:20:43.912Z,12.19
2023-01-01T14:23:29.772Z,12.17
2023-01-01T14:25:57.204Z,12.12
2023-01-01T14:28:29.955Z,12.04
2023-01-01T14:30:58.950Z,11.99
2023-01-01T14:33:28.966Z,12.05
2023-01-01T14:36:01.022Z,11.99
2023-01-01T14:38:36.038Z,11.87
2023-01-01T14:41:09.063Z,11.90
2023-01-01T14:43:37.835Z,11.85
2023-01-01T14:46:11.113Z,11.79
2023-01-01T14:48:37.984Z,11.78
2023-01-01T14:51:04.604Z,11.76
2023-01-01T14:53:33.286Z,11.62
2023-01-01T14:56:00.180Z,11.62
2023-01-01T14:58:29.280Z,11.55
2023-01-01T15:01:17.840Z,11.53
2023-01-01T15:04:15.345Z,11.53
2023-01-01T15:06:42.135Z,11.49
2023-01-01T15:09:16.262Z,11.46
2023-01-01T15:11:43.247Z,11.43
2023-01-01T15:14:39.536Z,11.42
2023-01-01T15:17:11.518Z,11.40
2023-01-01T15:19:41.442Z,11.32
2023-01-01T15:22:11.279Z,11.32
2023-01-01T15:24:39.094Z,11.29
2023-01-01T15:27:07.264Z,11.34
2023-01-01T15:29:38.376Z,11.20
2023-01-01T15:32:08.302Z,11.19
2023-01-01T15:34:42.123Z,11.13
2023-01-01T15:37:19.880Z,11.13
2023-01-01T15:39:52.181Z,11.05
2023-01-01T15:42:28.813Z,11.03
2023-01-01T15:44:55.314Z,11.00
2023-01-01T15:47:26.553Z,10.99
2023-01-01T15:50:24.506Z,10.99
2023-01-01T15:53:02.932Z,10.98
2023-01-01T15:55:33.221Z,10.97
2023-01-01T15:58:00.295Z,10.97
2023-01-01T16:00:34.685Z,10.90
2023-01-01T16:03:20.013Z,10.85
2023-01-01T16:05:55.481Z,10.85
2023-01-01T16:08:22.232Z,10.83
2023-01-01T16:10:49.679Z,10.80
2023-01-01T16:13:16.216Z,10.71
2023-01-01T16:16:24.552Z,10.72
2023-01-01T16:18:51.275Z,10.74
2023-01-01T16:21:18.304Z,10.68
2023-01-01T16:23:44.861Z,10.67
2023-01-01T16:26:11.322Z,10.63
2023-01-01T16:28:37.856Z,10.63
2023-01-01T16:31:04.559Z,10.64
2023-01-01T16:33:31.187Z,10.62
2023-01-01T16:35:57.673Z,10.65
2023-01-01T16:38:24.207Z,10.68
2023-01-01T16:40:51.546Z,10.67
2023-01-01T16:43:18.640Z,10.67
2023-01-01T16:45:45.418Z,10.71
2023-01-01T16:48:12.004Z,10.72
2023-01-01T16:50:38.724Z,10.68
2023-01-01T16:53:05.246Z,10.73
2023-01-01T16:55:31.778Z,10.73
2023-01-01T16:58:21.052Z,10.73
2023-01-01T17:00:45.392Z,10.68
2023-01-01T17:03:11.983Z,10.73
2023-01-01T17:05:44.125Z,10.78
2023-01-01T17:08:11.295Z,10.76
2023-01-01T17:10:37.778Z,10.72
2023-01-01T17:13:04.330Z,10.75
2023-01-01T17:15:32.392Z,10.74
2023-01-01T17:17:59.271Z,10.73
2023-01-01T17:20:26.518Z,10.71
2023-01-01T17:22:53.493Z,10.69
2023-01-01T17:25:20.013Z,10.66
2023-01-01T17:27:46.586Z,10.67
2023-01-01T17:30:14.124Z,10.69
2023-01-01T17:32:40.865Z,10.67
2023-01-01T17:35:07.873Z,10.71
2023-01-01T17:37:34.539Z,10.71
2023-01-01T17:40:01.503Z,10.74
2023-01-01T17:42:28.052Z,10.75
2023-01-01T17:44:54.525Z,10.77
2023-01-01T17:47:21.023Z,10.72
2023-01-01T17:49:48.661Z,10.69
2023-01-01T17:52:15.190Z,10.71
2023-01-01T17:54:41.684Z,10.74
2023-01-01T17:57:08.242Z,10.74
2023-01-01T17:59:34.765Z,10.69
2023-01-01T18:02:01.480Z,10.72
2023-01-01T18:04:28.202Z,10.70
2023-01-01T18:06:55.974Z,10.71
2023-01-01T18:09:25.311Z,10.71
2023-01-01T18:11:51.825Z,10.79
2023-01-01T18:14:22.620Z,10.72
2023-01-01T18:16:51.070Z,10.73
2023-01-01T18:19:17.594Z,10.72
2023-01-01T18:21:44.185Z,10.74
2023-01-01T18:24:15.449Z,10.71
2023-01-01T18:26:42.456Z,10.70
2023-01-01T18:29:09.199Z,10.71
2023-01-01T18:31:35.852Z,10.71
2023-01-01T18:34:04.400Z,10.72
2023-01-01T18:36:33.296Z,10.72
2023-01-01T18:39:02.208Z,10.69
2023-01-01T18:41:48.865Z,10.67
2023-01-01T18:44:21.494Z,10.76
2023-01-01T18:46:56.361Z,10.74
2023-01-01T18:49:25.462Z,10.72
2023-01-01T18:51:56.794Z,10.73
2023-01-01T18:54:24.516Z,10.74
2023-01-01T18:57:01.134Z,10.71
2023-01-01T18:59:28.722Z,10.67
2023-01-01T19:01:55.422Z,10.66
2023-01-01T19:04:22.235Z,10.70
2023-01-01T19:06:48.759Z,10.72
2023-01-01T19:09:18.386Z,10.72
2023-01-01T19:11:44.865Z,10.67
2023-01-01T19:14:20.327Z,10.69
2023-01-01T19:16:48.927Z,10.68
2023-01-01T19:19:20.162Z,10.69
2023-01-01T19:21:51.766Z,10.72
2023-01-01T19:24:26.311Z,10.72
2023-01-01T19:26:56.873Z,10.69
2023-01-01T19:29:25.418Z,10.69
2023-01-01T19:31:54.429Z,10.68
2023-01-01T19:34:22.262Z,10.67
2023-01-01T19:36:49.607Z,10.67
2023-01-01T19:39:17.256Z,10.65
2023-01-01T19:41:44.210Z,10.64
2023-01-01T19:44:11.556Z,10.69
2023-01-01T19:46:38.764Z,10.67
2023-01-01T19:49:05.837Z,10.67
2023-01-01T19:51:32.815Z,10.69
2023-01-01T19:54:01.225Z,10.66
2023-01-01T19:56:28.338Z,10.66
2023-01-01T19:58:55.395Z,10.71
2023-01-01T20:01:22.071Z,10.69
2023-01-01T20:03:54.592Z,10.67
2023-01-01T20:06:23.582Z,10.68
2023-01-01T20:08:50.635Z,10.66
2023-01-01T20:11:17.775Z,10.66
2023-01-01T20:13:44.270Z,10.68
2023-01-01T20:16:11.642Z,10.70
2023-01-01T20:18:38.925Z,10.71
2023-01-01T20:21:26.790Z,10.69
2023-01-01T20:23:55.987Z,10.73
2023-01-01T20:26:25.877Z,10.73
2023-01-01T20:29:11.770Z,10.76
2023-01-01T20:31:39.722Z,10.75
2023-01-01T20:34:06.901Z,10.74
2023-01-01T20:36:53.379Z,10.77
2023-01-01T20:39:21.768Z,10.77
2023-01-01T20:41:51.904Z,10.77
2023-01-01T20:44:18.918Z,10.76
2023-01-01T20:46:49.603Z,10.75
2023-01-01T20:49:18.009Z,10.71
2023-01-01T20:51:51.508Z,10.72
2023-01-01T20:54:19.566Z,10.71
2023-01-01T20:56:47.068Z,10.75
2023-01-01T21:02:08.528Z,10.81
2023-01-01T21:04:39.922Z,10.82
2023-01-01T21:07:09.883Z,10.82
2023-01-01T21:09:37.265Z,10.84
2023-01-01T21:12:04.913Z,10.82
2023-01-01T21:14:32.184Z,10.82
2023-01-01T21:16:59.262Z,10.83
2023-01-01T21:19:27.441Z,10.85
2023-01-01T21:21:58.501Z,10.83
2023-01-01T21:24:26.235Z,10.86
2023-01-01T21:26:56.052Z,10.84
2023-01-01T21:29:25.271Z,10.85
2023-01-01T21:32:13.656Z,10.84
2023-01-01T21:34:44.893Z,10.84
2023-01-01T21:37:44.769Z,10.86
2023-01-01T21:40:36.213Z,10.84
2023-01-01T21:43:28.041Z,10.84
2023-01-01T21:45:59.769Z,10.84
2023-01-01T21:48:39.412Z,10.87
2023-01-01T21:51:27.731Z,10.87
2023-01-01T21:54:14.802Z,10.81
2023-01-01T21:56:43.361Z,10.81
2023-01-01T21:59:28.540Z,10.83
2023-01-01T22:02:05.579Z,10.83
2023-01-01T22:04:52.484Z,10.83
2023-01-01T22:07:57.074Z,10.81
2023-01-01T22:10:22.340Z,10.79
2023-01-01T22:12:52.218Z,10.79
2023-01-01T22:15:48.905Z,10.79
2023-01-01T22:18:21.749Z,10.76
2023-01-01T22:20:48.833Z,10.81
2023-01-01T22:23:40.346Z,10.76
2023-01-01T22:26:33.080Z,10.69
2023-01-01T22:29:08.222Z,10.67
2023-01-01T22:31:36.486Z,10.64
2023-01-01T22:34:04.541Z,10.64
2023-01-01T22:36:36.075Z,10.63
2023-01-01T22:39:09.301Z,10.61
2023-01-01T22:41:35.791Z,10.57
2023-01-01T22:44:03.963Z,10.56
2023-01-01T22:46:40.849Z,10.53
2023-01-01T22:49:23.721Z,10.52
2023-01-01T22:51:54.258Z,10.53
2023-01-01T22:54:20.846Z,10.53
2023-01-01T22:56:47.383Z,10.51
2023-01-01T22:59:13.882Z,10.50
2023-01-01T23:01:40.507Z,10.46
2023-01-01T23:04:07.083Z,10.45
2023-01-01T23:06:33.756Z,10.41
2023-01-01T23:09:00.420Z,10.42
2023-01-01T23:11:27.778Z,10.41
2023-01-01T23:14:12.838Z,10.42
2023-01-01T23:16:39.384Z,10.42
2023-01-01T23:19:06.317Z,10.45
2023-01-01T23:21:35.160Z,10.45
2023-01-01T23:24:06.232Z,10.41
2023-01-01T23:26:33.257Z,10.42
2023-01-01T23:28:59.897Z,10.40
2023-01-01T23:31:27.924Z,10.38
2023-01-01T23:33:57.064Z,10.39
2023-01-01T23:36:26.569Z,10.38
2023-01-01T23:38:53.094Z,10.36
2023-01-01T23:41:19.652Z,10.39
2023-01-01T23:43:46.253Z,10.35
2023-01-01T23:46:13.819Z,10.40
2023-01-01T23:48:42.090Z,10.39
2023-01-01T23:51:09.014Z,10.38
2023-01-01T23:53:35.671Z,10.38
2023-01-01T23:56:02.671Z,10.36
2023-01-01T23:58:29.235Z,10.38
